sensor_id;sensor_type;location;lat;lon;timestamp;P1;durP1;ratioP1;P2;durP2;ratioP2
70126;SDS011;57491;42.694;23.314;2024-03-23T00:52:21;25.98;;;15.02;;
70126;SDS011;57491;42.694;23.314;2024-03-23T00:57:14;28.93;;;15.37;;
70126;SDS011;57491;42.694;23.314;2024-03-23T00:59:41;34.92;;;16.70;;
70126;SDS011;57491;42.694;23.314;2024-03-23T01:02:08;32.13;;;16.03;;
70126;SDS011;57491;42.694;23.314;2024-03-23T01:04:34;31.70;;;14.85;;
70126;SDS011;57491;42.694;23.314;2024-03-23T01:07:02;30.90;;;15.23;;
70126;SDS011;57491;42.694;23.314;2024-03-23T01:09:29;31.05;;;16.55;;
70126;SDS011;57491;42.694;23.314;2024-03-23T01:11:57;29.38;;;15.23;;
70126;SDS011;57491;42.694;23.314;2024-03-23T01:14:23;29.70;;;14.48;;
70126;SDS011;57491;42.694;23.314;2024-03-23T01:16:50;24.80;;;13.75;;
70126;SDS011;57491;42.694;23.314;2024-03-23T01:19:16;28.40;;;15.13;;
70126;SDS011;57491;42.694;23.314;2024-03-23T01:21:44;25.92;;;15.15;;
70126;SDS011;57491;42.694;23.314;2024-03-23T01:24:10;29.40;;;15.27;;
70126;SDS011;57491;42.694;23.314;2024-03-23T01:26:39;30.13;;;16.48;;
70126;SDS011;57491;42.694;23.314;2024-03-23T01:29:05;31.23;;;15.40;;
70126;SDS011;57491;42.694;23.314;2024-03-23T01:31:33;31.85;;;15.20;;
70126;SDS011;57491;42.694;23.314;2024-03-23T01:33:59;32.75;;;15.55;;
70126;SDS011;57491;42.694;23.314;2024-03-23T01:36:26;29.55;;;13.63;;
70126;SDS011;57491;42.694;23.314;2024-03-23T01:38:53;27.98;;;14.23;;
70126;SDS011;57491;42.694;23.314;2024-03-23T01:41:20;27.47;;;14.17;;
70126;SDS011;57491;42.694;23.314;2024-03-23T01:43:48;24.70;;;12.63;;
70126;SDS011;57491;42.694;23.314;2024-03-23T01:46:15;25.50;;;13.35;;
70126;SDS011;57491;42.694;23.314;2024-03-23T01:48:41;23.52;;;13.65;;
70126;SDS011;57491;42.694;23.314;2024-03-23T01:51:09;23.23;;;12.40;;
70126;SDS011;57491;42.694;23.314;2024-03-23T01:53:36;21.77;;;13.02;;
70126;SDS011;57491;42.694;23.314;2024-03-23T01:56:04;24.63;;;11.48;;
70126;SDS011;57491;42.694;23.314;2024-03-23T01:58:33;22.30;;;12.07;;
70126;SDS011;57491;42.694;23.314;2024-03-23T02:01:02;25.42;;;12.13;;
70126;SDS011;57491;42.694;23.314;2024-03-23T02:03:29;28.52;;;11.48;;
70126;SDS011;57491;42.694;23.314;2024-03-23T02:05:57;20.83;;;10.93;;
70126;SDS011;57491;42.694;23.314;2024-03-23T02:08:23;19.13;;;11.70;;
70126;SDS011;57491;42.694;23.314;2024-03-23T02:10:51;23.05;;;11.38;;
70126;SDS011;57491;42.694;23.314;2024-03-23T02:13:18;22.58;;;11.77;;
70126;SDS011;57491;42.694;23.314;2024-03-23T02:18:13;20.10;;;11.10;;
70126;SDS011;57491;42.694;23.314;2024-03-23T02:20:40;18.42;;;10.68;;
70126;SDS011;57491;42.694;23.314;2024-03-23T02:23:14;19.20;;;10.93;;
70126;SDS011;57491;42.694;23.314;2024-03-23T02:25:41;16.35;;;10.50;;
70126;SDS011;57491;42.694;23.314;2024-03-23T02:28:08;19.45;;;10.82;;
70126;SDS011;57491;42.694;23.314;2024-03-23T02:30:35;19.42;;;10.57;;
70126;SDS011;57491;42.694;23.314;2024-03-23T02:33:02;21.02;;;10.98;;
70126;SDS011;57491;42.694;23.314;2024-03-23T02:35:30;17.88;;;9.57;;
70126;SDS011;57491;42.694;23.314;2024-03-23T02:37:56;16.73;;;9.75;;
70126;SDS011;57491;42.694;23.314;2024-03-23T02:40:25;16.43;;;9.73;;
70126;SDS011;57491;42.694;23.314;2024-03-23T02:42:51;18.35;;;10.25;;
70126;SDS011;57491;42.694;23.314;2024-03-23T02:45:19;20.88;;;10.48;;
70126;SDS011;57491;42.694;23.314;2024-03-23T02:47:45;20.80;;;10.35;;
70126;SDS011;57491;42.694;23.314;2024-03-23T02:50:17;17.15;;;9.63;;
70126;SDS011;57491;42.694;23.314;2024-03-23T02:52:43;18.98;;;10.00;;
70126;SDS011;57491;42.694;23.314;2024-03-23T02:55:11;19.33;;;10.73;;
70126;SDS011;57491;42.694;23.314;2024-03-23T02:57:39;20.30;;;10.10;;
70126;SDS011;57491;42.694;23.314;2024-03-23T03:00:06;19.45;;;10.95;;
70126;SDS011;57491;42.694;23.314;2024-03-23T03:02:33;24.02;;;10.68;;
70126;SDS011;57491;42.694;23.314;2024-03-23T03:05:01;20.67;;;10.38;;
70126;SDS011;57491;42.694;23.314;2024-03-23T03:07:27;24.55;;;11.57;;
70126;SDS011;57491;42.694;23.314;2024-03-23T03:09:54;18.57;;;10.13;;
70126;SDS011;57491;42.694;23.314;2024-03-23T03:12:20;19.77;;;10.23;;
70126;SDS011;57491;42.694;23.314;2024-03-23T03:14:49;18.43;;;10.27;;
70126;SDS011;57491;42.694;23.314;2024-03-23T03:17:16;13.23;;;9.07;;
70126;SDS011;57491;42.694;23.314;2024-03-23T03:19:44;19.17;;;10.60;;
70126;SDS011;57491;42.694;23.314;2024-03-23T03:22:11;17.48;;;9.32;;
70126;SDS011;57491;42.694;23.314;2024-03-23T03:24:38;16.40;;;9.40;;
70126;SDS011;57491;42.694;23.314;2024-03-23T03:27:04;14.30;;;9.18;;
70126;SDS011;57491;42.694;23.314;2024-03-23T03:29:32;14.73;;;8.90;;
70126;SDS011;57491;42.694;23.314;2024-03-23T03:32:03;17.30;;;8.45;;
70126;SDS011;57491;42.694;23.314;2024-03-23T03:34:30;14.98;;;8.98;;
70126;SDS011;57491;42.694;23.314;2024-03-23T03:36:57;18.58;;;9.15;;
70126;SDS011;57491;42.694;23.314;2024-03-23T03:39:25;19.35;;;8.88;;
70126;SDS011;57491;42.694;23.314;2024-03-23T03:41:52;16.45;;;9.93;;
70126;SDS011;57491;42.694;23.314;2024-03-23T03:44:19;17.58;;;8.90;;
70126;SDS011;57491;42.694;23.314;2024-03-23T03:46:45;14.02;;;8.35;;
70126;SDS011;57491;42.694;23.314;2024-03-23T03:49:14;16.67;;;8.73;;
70126;SDS011;57491;42.694;23.314;2024-03-23T03:54:07;19.93;;;9.00;;
70126;SDS011;57491;42.694;23.314;2024-03-23T03:56:34;14.10;;;8.05;;
70126;SDS011;57491;42.694;23.314;2024-03-23T03:59:01;17.25;;;9.25;;
70126;SDS011;57491;42.694;23.314;2024-03-23T04:01:27;17.33;;;8.25;;
70126;SDS011;57491;42.694;23.314;2024-03-23T04:03:55;14.53;;;8.17;;
70126;SDS011;57491;42.694;23.314;2024-03-23T04:06:22;17.13;;;8.75;;
70126;SDS011;57491;42.694;23.314;2024-03-23T04:08:50;13.82;;;7.78;;
70126;SDS011;57491;42.694;23.314;2024-03-23T04:11:16;14.55;;;8.40;;
70126;SDS011;57491;42.694;23.314;2024-03-23T04:13:44;16.95;;;8.65;;
70126;SDS011;57491;42.694;23.314;2024-03-23T04:16:10;14.90;;;7.68;;
70126;SDS011;57491;42.694;23.314;2024-03-23T04:18:38;14.55;;;8.85;;
70126;SDS011;57491;42.694;23.314;2024-03-23T04:21:04;14.85;;;7.93;;
70126;SDS011;57491;42.694;23.314;2024-03-23T04:23:32;18.37;;;8.67;;
70126;SDS011;57491;42.694;23.314;2024-03-23T04:26:02;19.23;;;7.70;;
70126;SDS011;57491;42.694;23.314;2024-03-23T04:28:30;15.35;;;8.15;;
70126;SDS011;57491;42.694;23.314;2024-03-23T04:30:57;18.48;;;8.77;;
70126;SDS011;57491;42.694;23.314;2024-03-23T04:33:24;14.45;;;8.65;;
70126;SDS011;57491;42.694;23.314;2024-03-23T04:35:50;14.85;;;8.07;;
70126;SDS011;57491;42.694;23.314;2024-03-23T04:38:18;15.63;;;9.20;;
70126;SDS011;57491;42.694;23.314;2024-03-23T04:40:47;16.25;;;8.88;;
70126;SDS011;57491;42.694;23.314;2024-03-23T04:43:21;11.45;;;6.88;;
70126;SDS011;57491;42.694;23.314;2024-03-23T04:45:48;16.53;;;8.13;;
70126;SDS011;57491;42.694;23.314;2024-03-23T04:48:15;14.27;;;7.97;;
70126;SDS011;57491;42.694;23.314;2024-03-23T04:50:43;16.50;;;7.93;;
70126;SDS011;57491;42.694;23.314;2024-03-23T04:53:10;17.63;;;8.93;;
70126;SDS011;57491;42.694;23.314;2024-03-23T04:55:37;20.40;;;9.37;;
70126;SDS011;57491;42.694;23.314;2024-03-23T04:58:06;13.35;;;7.40;;
70126;SDS011;57491;42.694;23.314;2024-03-23T05:00:32;14.40;;;8.38;;
70126;SDS011;57491;42.694;23.314;2024-03-23T05:02:59;19.90;;;8.60;;
70126;SDS011;57491;42.694;23.314;2024-03-23T05:05:26;13.60;;;8.48;;
70126;SDS011;57491;42.694;23.314;2024-03-23T05:07:53;16.17;;;8.68;;
70126;SDS011;57491;42.694;23.314;2024-03-23T05:10:19;15.27;;;8.80;;
70126;SDS011;57491;42.694;23.314;2024-03-23T05:12:46;15.83;;;8.73;;
70126;SDS011;57491;42.694;23.314;2024-03-23T05:15:14;16.08;;;9.35;;
70126;SDS011;57491;42.694;23.314;2024-03-23T05:17:42;12.95;;;7.80;;
70126;SDS011;57491;42.694;23.314;2024-03-23T05:20:08;21.20;;;8.38;;
70126;SDS011;57491;42.694;23.314;2024-03-23T05:22:38;15.32;;;7.53;;
70126;SDS011;57491;42.694;23.314;2024-03-23T05:25:04;14.48;;;8.02;;
70126;SDS011;57491;42.694;23.314;2024-03-23T05:27:32;17.70;;;8.57;;
70126;SDS011;57491;42.694;23.314;2024-03-23T05:29:59;15.60;;;8.52;;
70126;SDS011;57491;42.694;23.314;2024-03-23T05:32:28;19.65;;;9.50;;
70126;SDS011;57491;42.694;23.314;2024-03-23T05:34:54;19.60;;;9.18;;
70126;SDS011;57491;42.694;23.314;2024-03-23T05:37:22;17.13;;;9.98;;
70126;SDS011;57491;42.694;23.314;2024-03-23T05:39:49;17.80;;;9.35;;
70126;SDS011;57491;42.694;23.314;2024-03-23T05:42:16;14.40;;;8.20;;
70126;SDS011;57491;42.694;23.314;2024-03-23T05:44:43;19.58;;;9.13;;
70126;SDS011;57491;42.694;23.314;2024-03-23T05:47:11;16.95;;;9.23;;
70126;SDS011;57491;42.694;23.314;2024-03-23T05:49:40;18.95;;;9.50;;
70126;SDS011;57491;42.694;23.314;2024-03-23T05:52:08;19.10;;;9.48;;
70126;SDS011;57491;42.694;23.314;2024-03-23T05:54:34;17.20;;;9.20;;
70126;SDS011;57491;42.694;23.314;2024-03-23T05:57:02;18.17;;;8.98;;
70126;SDS011;57491;42.694;23.314;2024-03-23T05:59:29;18.80;;;9.23;;
70126;SDS011;57491;42.694;23.314;2024-03-23T06:01:56;21.38;;;10.00;;
70126;SDS011;57491;42.694;23.314;2024-03-23T06:04:22;21.65;;;9.88;;
70126;SDS011;57491;42.694;23.314;2024-03-23T06:06:51;20.40;;;11.27;;
70126;SDS011;57491;42.694;23.314;2024-03-23T06:09:17;18.42;;;9.98;;
70126;SDS011;57491;42.694;23.314;2024-03-23T06:14:12;21.63;;;9.88;;
70126;SDS011;57491;42.694;23.314;2024-03-23T06:16:40;19.80;;;10.00;;
70126;SDS011;57491;42.694;23.314;2024-03-23T06:19:06;22.55;;;11.80;;
70126;SDS011;57491;42.694;23.314;2024-03-23T06:21:34;19.40;;;11.33;;
70126;SDS011;57491;42.694;23.314;2024-03-23T06:24:01;16.73;;;9.77;;
70126;SDS011;57491;42.694;23.314;2024-03-23T06:26:29;21.23;;;11.32;;
70126;SDS011;57491;42.694;23.314;2024-03-23T06:28:55;21.55;;;10.48;;
70126;SDS011;57491;42.694;23.314;2024-03-23T06:31:22;19.45;;;10.98;;
70126;SDS011;57491;42.694;23.314;2024-03-23T06:33:49;21.25;;;11.13;;
70126;SDS011;57491;42.694;23.314;2024-03-23T06:36:16;21.58;;;10.98;;
70126;SDS011;57491;42.694;23.314;2024-03-23T06:38:45;19.65;;;11.48;;
70126;SDS011;57491;42.694;23.314;2024-03-23T06:41:13;25.27;;;11.43;;
70126;SDS011;57491;42.694;23.314;2024-03-23T06:46:07;21.85;;;11.98;;
70126;SDS011;57491;42.694;23.314;2024-03-23T06:48:34;21.05;;;10.70;;
70126;SDS011;57491;42.694;23.314;2024-03-23T06:51:01;19.83;;;11.13;;
70126;SDS011;57491;42.694;23.314;2024-03-23T06:53:27;22.50;;;11.70;;
70126;SDS011;57491;42.694;23.314;2024-03-23T06:55:54;27.42;;;12.13;;
70126;SDS011;57491;42.694;23.314;2024-03-23T06:58:23;20.85;;;10.45;;
70126;SDS011;57491;42.694;23.314;2024-03-23T07:00:52;17.17;;;11.38;;
70126;SDS011;57491;42.694;23.314;2024-03-23T07:03:18;21.20;;;10.57;;
70126;SDS011;57491;42.694;23.314;2024-03-23T07:05:45;23.55;;;11.40;;
70126;SDS011;57491;42.694;23.314;2024-03-23T07:08:12;24.42;;;10.75;;
70126;SDS011;57491;42.694;23.314;2024-03-23T07:10:44;20.02;;;11.25;;
70126;SDS011;57491;42.694;23.314;2024-03-23T07:13:13;17.83;;;11.45;;
70126;SDS011;57491;42.694;23.314;2024-03-23T07:15:42;18.63;;;9.95;;
70126;SDS011;57491;42.694;23.314;2024-03-23T07:18:08;16.55;;;10.23;;
70126;SDS011;57491;42.694;23.314;2024-03-23T07:20:36;19.13;;;11.32;;
70126;SDS011;57491;42.694;23.314;2024-03-23T07:23:02;18.95;;;11.48;;
70126;SDS011;57491;42.694;23.314;2024-03-23T07:25:30;14.77;;;9.93;;
70126;SDS011;57491;42.694;23.314;2024-03-23T07:27:57;15.73;;;10.13;;
70126;SDS011;57491;42.694;23.314;2024-03-23T07:32:52;16.40;;;10.88;;
70126;SDS011;57491;42.694;23.314;2024-03-23T07:35:19;20.35;;;10.13;;
70126;SDS011;57491;42.694;23.314;2024-03-23T07:37:46;14.07;;;10.20;;
70126;SDS011;57491;42.694;23.314;2024-03-23T07:40:13;19.65;;;10.02;;
70126;SDS011;57491;42.694;23.314;2024-03-23T07:42:40;17.30;;;9.68;;
70126;SDS011;57491;42.694;23.314;2024-03-23T07:45:07;18.15;;;9.38;;
70126;SDS011;57491;42.694;23.314;2024-03-23T07:47:35;20.67;;;10.57;;
70126;SDS011;57491;42.694;23.314;2024-03-23T07:50:04;15.43;;;9.88;;
70126;SDS011;57491;42.694;23.314;2024-03-23T07:52:30;18.65;;;9.38;;
70126;SDS011;57491;42.694;23.314;2024-03-23T07:54:58;15.05;;;10.80;;
70126;SDS011;57491;42.694;23.314;2024-03-23T07:57:24;19.50;;;10.68;;
70126;SDS011;57491;42.694;23.314;2024-03-23T07:59:52;17.77;;;10.15;;
70126;SDS011;57491;42.694;23.314;2024-03-23T08:02:18;15.40;;;9.77;;
70126;SDS011;57491;42.694;23.314;2024-03-23T08:04:45;25.25;;;10.68;;
70126;SDS011;57491;42.694;23.314;2024-03-23T08:07:13;17.10;;;10.02;;
70126;SDS011;57491;42.694;23.314;2024-03-23T08:09:40;18.83;;;11.05;;
70126;SDS011;57491;42.694;23.314;2024-03-23T08:12:07;18.08;;;10.68;;
70126;SDS011;57491;42.694;23.314;2024-03-23T08:14:34;14.65;;;10.40;;
70126;SDS011;57491;42.694;23.314;2024-03-23T08:17:01;17.23;;;10.70;;
70126;SDS011;57491;42.694;23.314;2024-03-23T08:19:27;17.17;;;9.98;;
70126;SDS011;57491;42.694;23.314;2024-03-23T08:21:55;16.08;;;10.48;;
70126;SDS011;57491;42.694;23.314;2024-03-23T08:24:22;20.38;;;11.13;;
70126;SDS011;57491;42.694;23.314;2024-03-23T08:26:50;14.80;;;9.73;;
70126;SDS011;57491;42.694;23.314;2024-03-23T08:29:16;14.75;;;10.05;;
70126;SDS011;57491;42.694;23.314;2024-03-23T08:31:43;15.23;;;10.27;;
70126;SDS011;57491;42.694;23.314;2024-03-23T08:34:09;21.40;;;11.18;;
70126;SDS011;57491;42.694;23.314;2024-03-23T08:36:37;17.00;;;9.90;;
70126;SDS011;57491;42.694;23.314;2024-03-23T08:39:03;18.13;;;10.30;;
70126;SDS011;57491;42.694;23.314;2024-03-23T08:41:32;19.88;;;9.98;;
70126;SDS011;57491;42.694;23.314;2024-03-23T08:43:59;15.50;;;10.60;;
70126;SDS011;57491;42.694;23.314;2024-03-23T08:46:26;12.45;;;10.07;;
70126;SDS011;57491;42.694;23.314;2024-03-23T08:48:53;21.30;;;11.67;;
70126;SDS011;57491;42.694;23.314;2024-03-23T08:51:20;23.85;;;11.80;;
70126;SDS011;57491;42.694;23.314;2024-03-23T08:53:46;19.27;;;11.07;;
70126;SDS011;57491;42.694;23.314;2024-03-23T08:56:13;22.45;;;14.32;;
70126;SDS011;57491;42.694;23.314;2024-03-23T08:58:41;18.92;;;11.45;;
70126;SDS011;57491;42.694;23.314;2024-03-23T09:01:09;19.75;;;12.23;;
70126;SDS011;57491;42.694;23.314;2024-03-23T09:03:37;21.00;;;12.38;;
70126;SDS011;57491;42.694;23.314;2024-03-23T09:06:06;22.83;;;11.98;;
70126;SDS011;57491;42.694;23.314;2024-03-23T09:08:33;21.25;;;12.95;;
70126;SDS011;57491;42.694;23.314;2024-03-23T09:11:03;18.63;;;12.13;;
70126;SDS011;57491;42.694;23.314;2024-03-23T09:13:32;18.67;;;12.35;;
70126;SDS011;57491;42.694;23.314;2024-03-23T09:16:04;22.00;;;12.40;;
70126;SDS011;57491;42.694;23.314;2024-03-23T09:18:32;22.60;;;12.73;;
70126;SDS011;57491;42.694;23.314;2024-03-23T09:21:00;19.27;;;12.77;;
70126;SDS011;57491;42.694;23.314;2024-03-23T09:23:28;17.97;;;13.27;;
70126;SDS011;57491;42.694;23.314;2024-03-23T09:25:56;22.33;;;12.90;;
70126;SDS011;57491;42.694;23.314;2024-03-23T09:28:22;18.75;;;12.30;;
70126;SDS011;57491;42.694;23.314;2024-03-23T09:30:49;20.20;;;12.43;;
70126;SDS011;57491;42.694;23.314;2024-03-23T09:33:17;24.02;;;13.60;;
70126;SDS011;57491;42.694;23.314;2024-03-23T09:35:44;21.33;;;12.60;;
70126;SDS011;57491;42.694;23.314;2024-03-23T09:38:11;20.38;;;12.18;;
70126;SDS011;57491;42.694;23.314;2024-03-23T09:40:40;21.40;;;11.65;;
70126;SDS011;57491;42.694;23.314;2024-03-23T09:43:07;18.70;;;10.85;;
70126;SDS011;57491;42.694;23.314;2024-03-23T09:45:36;15.27;;;11.13;;
70126;SDS011;57491;42.694;23.314;2024-03-23T09:48:05;17.05;;;9.98;;
70126;SDS011;57491;42.694;23.314;2024-03-23T09:50:34;17.45;;;10.73;;
70126;SDS011;57491;42.694;23.314;2024-03-23T09:53:02;21.67;;;12.77;;
70126;SDS011;57491;42.694;23.314;2024-03-23T09:57:56;19.42;;;10.27;;
70126;SDS011;57491;42.694;23.314;2024-03-23T10:00:23;17.05;;;11.13;;
70126;SDS011;57491;42.694;23.314;2024-03-23T10:02:49;17.08;;;10.88;;
70126;SDS011;57491;42.694;23.314;2024-03-23T10:05:20;17.52;;;11.23;;
70126;SDS011;57491;42.694;23.314;2024-03-23T10:07:49;16.75;;;11.98;;
70126;SDS011;57491;42.694;23.314;2024-03-23T10:10:16;20.67;;;12.25;;
70126;SDS011;57491;42.694;23.314;2024-03-23T10:12:46;16.05;;;10.70;;
70126;SDS011;57491;42.694;23.314;2024-03-23T10:15:20;21.27;;;11.52;;
70126;SDS011;57491;42.694;23.314;2024-03-23T10:17:47;18.13;;;11.00;;
70126;SDS011;57491;42.694;23.314;2024-03-23T10:22:45;16.80;;;11.05;;
70126;SDS011;57491;42.694;23.314;2024-03-23T10:25:14;13.23;;;10.32;;
70126;SDS011;57491;42.694;23.314;2024-03-23T10:27:40;17.42;;;11.40;;
70126;SDS011;57491;42.694;23.314;2024-03-23T10:30:09;15.88;;;11.23;;
70126;SDS011;57491;42.694;23.314;2024-03-23T10:32:37;18.38;;;12.15;;
70126;SDS011;57491;42.694;23.314;2024-03-23T10:35:14;21.42;;;11.52;;
70126;SDS011;57491;42.694;23.314;2024-03-23T10:37:41;16.35;;;11.35;;
70126;SDS011;57491;42.694;23.314;2024-03-23T10:40:09;17.75;;;11.00;;
70126;SDS011;57491;42.694;23.314;2024-03-23T10:42:39;15.50;;;9.82;;
70126;SDS011;57491;42.694;23.314;2024-03-23T10:45:07;13.57;;;9.52;;
70126;SDS011;57491;42.694;23.314;2024-03-23T10:50:02;15.30;;;9.52;;
70126;SDS011;57491;42.694;23.314;2024-03-23T10:52:30;11.43;;;9.52;;
70126;SDS011;57491;42.694;23.314;2024-03-23T10:54:58;11.88;;;9.85;;
70126;SDS011;57491;42.694;23.314;2024-03-23T10:57:27;14.40;;;9.70;;
70126;SDS011;57491;42.694;23.314;2024-03-23T11:00:03;18.50;;;10.73;;
70126;SDS011;57491;42.694;23.314;2024-03-23T11:02:31;12.38;;;10.05;;
70126;SDS011;57491;42.694;23.314;2024-03-23T11:07:30;13.43;;;9.75;;
70126;SDS011;57491;42.694;23.314;2024-03-23T11:09:58;13.27;;;9.75;;
70126;SDS011;57491;42.694;23.314;2024-03-23T11:14:53;12.27;;;8.95;;
70126;SDS011;57491;42.694;23.314;2024-03-23T11:17:24;18.50;;;10.05;;
70126;SDS011;57491;42.694;23.314;2024-03-23T11:19:53;13.55;;;9.05;;
70126;SDS011;57491;42.694;23.314;2024-03-23T11:25:18;13.60;;;9.80;;
70126;SDS011;57491;42.694;23.314;2024-03-23T11:27:47;13.95;;;9.13;;
70126;SDS011;57491;42.694;23.314;2024-03-23T11:30:15;11.65;;;8.07;;
70126;SDS011;57491;42.694;23.314;2024-03-23T11:32:46;11.30;;;8.77;;
70126;SDS011;57491;42.694;23.314;2024-03-23T11:38:02;13.00;;;8.52;;
70126;SDS011;57491;42.694;23.314;2024-03-23T11:40:30;11.95;;;8.02;;
70126;SDS011;57491;42.694;23.314;2024-03-23T11:42:58;10.93;;;8.20;;
70126;SDS011;57491;42.694;23.314;2024-03-23T11:48:02;14.02;;;8.00;;
70126;SDS011;57491;42.694;23.314;2024-03-23T11:50:30;12.80;;;7.63;;
70126;SDS011;57491;42.694;23.314;2024-03-23T11:53:14;9.90;;;7.47;;
70126;SDS011;57491;42.694;23.314;2024-03-23T11:55:43;11.40;;;7.10;;
70126;SDS011;57491;42.694;23.314;2024-03-23T11:58:12;10.45;;;7.82;;
70126;SDS011;57491;42.694;23.314;2024-03-23T12:03:07;13.20;;;7.45;;
70126;SDS011;57491;42.694;23.314;2024-03-23T12:05:37;10.88;;;6.22;;
70126;SDS011;57491;42.694;23.314;2024-03-23T12:08:21;7.97;;;6.80;;
70126;SDS011;57491;42.694;23.314;2024-03-23T12:10:50;11.15;;;6.20;;
70126;SDS011;57491;42.694;23.314;2024-03-23T12:13:17;8.55;;;5.93;;
70126;SDS011;57491;42.694;23.314;2024-03-23T12:15:50;12.60;;;6.28;;
70126;SDS011;57491;42.694;23.314;2024-03-23T12:18:18;7.38;;;5.35;;
70126;SDS011;57491;42.694;23.314;2024-03-23T12:20:51;8.13;;;5.45;;
70126;SDS011;57491;42.694;23.314;2024-03-23T12:23:17;7.38;;;5.50;;
70126;SDS011;57491;42.694;23.314;2024-03-23T12:25:48;9.57;;;4.70;;
70126;SDS011;57491;42.694;23.314;2024-03-23T12:28:14;6.88;;;4.82;;
70126;SDS011;57491;42.694;23.314;2024-03-23T12:30:42;5.53;;;3.78;;
70126;SDS011;57491;42.694;23.314;2024-03-23T12:33:08;3.47;;;3.17;;
70126;SDS011;57491;42.694;23.314;2024-03-23T12:35:38;3.05;;;2.85;;
70126;SDS011;57491;42.694;23.314;2024-03-23T12:38:04;7.20;;;4.97;;
70126;SDS011;57491;42.694;23.314;2024-03-23T12:40:31;7.70;;;4.93;;
70126;SDS011;57491;42.694;23.314;2024-03-23T12:42:57;5.82;;;3.45;;
70126;SDS011;57491;42.694;23.314;2024-03-23T12:45:25;5.28;;;4.78;;
70126;SDS011;57491;42.694;23.314;2024-03-23T12:47:51;6.25;;;5.15;;
70126;SDS011;57491;42.694;23.314;2024-03-23T12:50:19;8.38;;;5.32;;
70126;SDS011;57491;42.694;23.314;2024-03-23T12:52:47;6.30;;;4.07;;
70126;SDS011;57491;42.694;23.314;2024-03-23T12:55:14;4.55;;;2.85;;
70126;SDS011;57491;42.694;23.314;2024-03-23T12:57:41;2.55;;;2.35;;
70126;SDS011;57491;42.694;23.314;2024-03-23T13:00:08;3.92;;;2.40;;
70126;SDS011;57491;42.694;23.314;2024-03-23T13:02:37;2.20;;;2.00;;
70126;SDS011;57491;42.694;23.314;2024-03-23T13:05:05;2.65;;;2.08;;
70126;SDS011;57491;42.694;23.314;2024-03-23T13:07:33;1.75;;;1.65;;
70126;SDS011;57491;42.694;23.314;2024-03-23T13:10:02;2.05;;;1.85;;
70126;SDS011;57491;42.694;23.314;2024-03-23T13:12:29;2.97;;;2.22;;
70126;SDS011;57491;42.694;23.314;2024-03-23T13:14:57;3.95;;;1.92;;
70126;SDS011;57491;42.694;23.314;2024-03-23T13:17:23;3.55;;;2.10;;
70126;SDS011;57491;42.694;23.314;2024-03-23T13:19:51;4.00;;;3.35;;
70126;SDS011;57491;42.694;23.314;2024-03-23T13:22:18;2.07;;;1.90;;
70126;SDS011;57491;42.694;23.314;2024-03-23T13:24:45;4.85;;;3.47;;
70126;SDS011;57491;42.694;23.314;2024-03-23T13:27:13;5.95;;;2.10;;
70126;SDS011;57491;42.694;23.314;2024-03-23T13:29:40;4.60;;;1.40;;
70126;SDS011;57491;42.694;23.314;2024-03-23T13:32:06;3.38;;;1.70;;
70126;SDS011;57491;42.694;23.314;2024-03-23T13:34:34;2.83;;;1.88;;
70126;SDS011;57491;42.694;23.314;2024-03-23T13:37:01;2.80;;;2.00;;
70126;SDS011;57491;42.694;23.314;2024-03-23T13:39:28;7.35;;;2.50;;
70126;SDS011;57491;42.694;23.314;2024-03-23T13:41:56;2.90;;;1.90;;
70126;SDS011;57491;42.694;23.314;2024-03-23T13:44:24;3.10;;;1.60;;
70126;SDS011;57491;42.694;23.314;2024-03-23T13:46:52;2.42;;;2.20;;
70126;SDS011;57491;42.694;23.314;2024-03-23T13:49:24;4.43;;;1.98;;
70126;SDS011;57491;42.694;23.314;2024-03-23T13:51:53;5.72;;;2.38;;
70126;SDS011;57491;42.694;23.314;2024-03-23T13:54:20;3.15;;;2.13;;
70126;SDS011;57491;42.694;23.314;2024-03-23T13:56:49;2.33;;;2.00;;
70126;SDS011;57491;42.694;23.314;2024-03-23T13:59:16;3.47;;;2.40;;
70126;SDS011;57491;42.694;23.314;2024-03-23T14:01:45;7.15;;;2.60;;
70126;SDS011;57491;42.694;23.314;2024-03-23T14:04:11;3.75;;;2.42;;
70126;SDS011;57491;42.694;23.314;2024-03-23T14:06:39;2.90;;;2.15;;
70126;SDS011;57491;42.694;23.314;2024-03-23T14:09:05;3.15;;;1.70;;
70126;SDS011;57491;42.694;23.314;2024-03-23T14:11:34;2.15;;;1.95;;
70126;SDS011;57491;42.694;23.314;2024-03-23T14:14:01;3.65;;;1.98;;
70126;SDS011;57491;42.694;23.314;2024-03-23T14:16:30;3.50;;;2.13;;
70126;SDS011;57491;42.694;23.314;2024-03-23T14:18:58;2.70;;;2.13;;
70126;SDS011;57491;42.694;23.314;2024-03-23T14:21:25;2.60;;;1.88;;
70126;SDS011;57491;42.694;23.314;2024-03-23T14:23:52;4.63;;;1.98;;
70126;SDS011;57491;42.694;23.314;2024-03-23T14:26:20;2.60;;;1.55;;
70126;SDS011;57491;42.694;23.314;2024-03-23T14:28:47;3.13;;;2.28;;
70126;SDS011;57491;42.694;23.314;2024-03-23T14:31:15;4.97;;;2.45;;
70126;SDS011;57491;42.694;23.314;2024-03-23T14:33:42;3.15;;;2.20;;
70126;SDS011;57491;42.694;23.314;2024-03-23T14:36:13;5.38;;;2.30;;
70126;SDS011;57491;42.694;23.314;2024-03-23T14:41:06;4.53;;;2.00;;
70126;SDS011;57491;42.694;23.314;2024-03-23T14:43:33;3.13;;;2.43;;
70126;SDS011;57491;42.694;23.314;2024-03-23T14:46:08;3.92;;;2.30;;
70126;SDS011;57491;42.694;23.314;2024-03-23T14:48:35;4.22;;;2.35;;
70126;SDS011;57491;42.694;23.314;2024-03-23T14:51:03;5.22;;;2.92;;
70126;SDS011;57491;42.694;23.314;2024-03-23T14:53:32;3.28;;;2.20;;
70126;SDS011;57491;42.694;23.314;2024-03-23T14:55:59;4.13;;;2.67;;
70126;SDS011;57491;42.694;23.314;2024-03-23T14:58:26;3.60;;;2.33;;
70126;SDS011;57491;42.694;23.314;2024-03-23T15:00:59;8.25;;;3.63;;
70126;SDS011;57491;42.694;23.314;2024-03-23T15:03:26;7.32;;;2.97;;
70126;SDS011;57491;42.694;23.314;2024-03-23T15:05:54;4.53;;;2.72;;
70126;SDS011;57491;42.694;23.314;2024-03-23T15:08:20;4.28;;;2.97;;
70126;SDS011;57491;42.694;23.314;2024-03-23T15:13:16;5.40;;;2.70;;
70126;SDS011;57491;42.694;23.314;2024-03-23T15:15:44;3.90;;;2.90;;
70126;SDS011;57491;42.694;23.314;2024-03-23T15:18:10;4.30;;;2.80;;
70126;SDS011;57491;42.694;23.314;2024-03-23T15:20:40;7.78;;;3.33;;
70126;SDS011;57491;42.694;23.314;2024-03-23T15:23:07;7.13;;;3.33;;
70126;SDS011;57491;42.694;23.314;2024-03-23T15:25:34;6.50;;;4.05;;
70126;SDS011;57491;42.694;23.314;2024-03-23T15:28:02;4.95;;;3.40;;
70126;SDS011;57491;42.694;23.314;2024-03-23T15:30:29;5.05;;;3.50;;
70126;SDS011;57491;42.694;23.314;2024-03-23T15:32:55;5.40;;;3.25;;
70126;SDS011;57491;42.694;23.314;2024-03-23T15:35:23;5.13;;;3.20;;
70126;SDS011;57491;42.694;23.314;2024-03-23T15:37:49;6.68;;;3.80;;
70126;SDS011;57491;42.694;23.314;2024-03-23T15:42:43;6.50;;;3.10;;
70126;SDS011;57491;42.694;23.314;2024-03-23T15:45:12;3.58;;;3.13;;
70126;SDS011;57491;42.694;23.314;2024-03-23T15:47:38;3.97;;;2.83;;
70126;SDS011;57491;42.694;23.314;2024-03-23T15:50:05;6.25;;;3.17;;
70126;SDS011;57491;42.694;23.314;2024-03-23T15:52:34;5.30;;;3.33;;
70126;SDS011;57491;42.694;23.314;2024-03-23T15:55:03;5.65;;;3.10;;
70126;SDS011;57491;42.694;23.314;2024-03-23T15:57:32;5.93;;;3.20;;